createdAt,value
2017-11-12T00:01:45.645Z,1.40
2017-11-12T00:04:12.784Z,1.20
2017-11-12T00:06:39.185Z,1.43
2017-11-12T00:09:05.601Z,1.30
2017-11-12T00:11:32.036Z,1.40
2017-11-12T00:13:58.455Z,1.20
2017-11-12T00:16:25.565Z,1.53
2017-11-12T00:18:53.447Z,1.10
2017-11-12T00:21:19.840Z,1.03
2017-11-12T00:23:46.240Z,1.13
2017-11-12T00:26:12.629Z,1.00
2017-11-12T00:28:39.020Z,1.10
2017-11-12T00:31:05.434Z,0.80
2017-11-12T00:33:31.834Z,0.90
2017-11-12T00:35:58.236Z,1.20
2017-11-12T00:38:24.634Z,1.10
2017-11-12T00:40:51.770Z,1.17
2017-11-12T00:43:18.952Z,1.10
2017-11-12T00:45:45.340Z,1.60
2017-11-12T00:48:12.473Z,1.10
2017-11-12T00:50:40.356Z,1.17
2017-11-12T00:53:06.735Z,1.20
2017-11-12T00:55:33.232Z,1.23
2017-11-12T00:58:00.404Z,1.30
2017-11-12T01:00:26.802Z,1.10
2017-11-12T01:02:53.185Z,1.37
2017-11-12T01:05:19.581Z,1.43
2017-11-12T01:07:46.724Z,1.20
2017-11-12T01:10:13.873Z,1.20
2017-11-12T01:12:40.255Z,1.87
2017-11-12T01:15:06.655Z,1.57
2017-11-12T01:17:33.045Z,1.50
2017-11-12T01:19:59.440Z,1.60
2017-11-12T01:22:25.825Z,1.60
2017-11-12T01:24:52.957Z,1.93
2017-11-12T01:27:19.340Z,1.63
2017-11-12T01:29:45.730Z,1.40
2017-11-12T01:32:12.163Z,1.90
2017-11-12T01:34:40.041Z,2.40
2017-11-12T01:37:07.912Z,2.70
2017-11-12T01:39:35.028Z,2.43
2017-11-12T01:42:01.438Z,2.63
2017-11-12T01:44:27.893Z,2.20
2017-11-12T01:46:54.284Z,2.30
2017-11-12T01:49:20.694Z,2.27
2017-11-12T01:51:47.808Z,2.57
2017-11-12T01:54:14.226Z,2.20
2017-11-12T01:56:40.631Z,1.93
2017-11-12T01:59:07.030Z,2.20
2017-11-12T02:01:33.456Z,2.53
2017-11-12T02:03:59.952Z,2.40
2017-11-12T02:06:26.397Z,2.10
2017-11-12T02:08:52.837Z,2.47
2017-11-12T02:11:19.236Z,2.70
2017-11-12T02:13:45.705Z,2.40
2017-11-12T02:16:12.132Z,2.50
2017-11-12T02:18:38.553Z,2.67
2017-11-12T02:21:05.017Z,3.07
2017-11-12T02:23:31.468Z,2.60
2017-11-12T02:25:57.875Z,3.07
2017-11-12T02:28:24.314Z,2.53
2017-11-12T02:30:50.721Z,3.23
2017-11-12T02:33:17.156Z,2.97
2017-11-12T02:35:44.353Z,3.00
2017-11-12T02:38:11.527Z,3.37
2017-11-12T02:40:37.943Z,3.50
2017-11-12T02:43:05.131Z,3.30
2017-11-12T02:45:31.575Z,3.03
2017-11-12T02:47:58.002Z,2.77
2017-11-12T02:50:24.405Z,3.40
2017-11-12T02:52:50.867Z,3.07
2017-11-12T02:55:17.295Z,3.60
2017-11-12T02:57:43.708Z,3.50
2017-11-12T03:00:10.140Z,3.80
2017-11-12T03:02:36.529Z,3.73
2017-11-12T03:05:03.768Z,3.77
2017-11-12T03:07:30.172Z,3.90
2017-11-12T03:09:56.592Z,4.90
2017-11-12T03:12:23.456Z,5.47
2017-11-12T03:14:50.109Z,4.47
2017-11-12T03:17:16.533Z,5.00
2017-11-12T03:19:42.952Z,6.33
2017-11-12T03:22:09.369Z,5.90
2017-11-12T03:24:35.782Z,6.23
2017-11-12T03:27:02.982Z,6.07
2017-11-12T03:29:29.444Z,7.03
2017-11-12T03:31:55.825Z,6.43
2017-11-12T03:34:22.211Z,6.23
2017-11-12T03:36:50.078Z,5.60
2017-11-12T03:39:16.475Z,6.50
2017-11-12T03:41:42.864Z,6.30
2017-11-12T03:44:10.027Z,7.10
2017-11-12T03:46:36.450Z,6.40
2017-11-12T03:49:03.636Z,5.97
2017-11-12T03:51:30.072Z,6.57
2017-11-12T03:53:56.459Z,7.20
2017-11-12T03:56:22.889Z,12.73
2017-11-12T03:58:50.038Z,9.77
2017-11-12T04:01:17.216Z,9.00
2017-11-12T04:03:43.641Z,8.90
2017-11-12T04:06:10.228Z,9.17
2017-11-12T04:08:37.393Z,9.47
2017-11-12T04:11:04.560Z,8.30
2017-11-12T04:13:31.707Z,9.17
2017-11-12T04:15:58.872Z,7.97
2017-11-12T04:18:25.290Z,8.63
2017-11-12T04:20:51.741Z,7.20
2017-11-12T04:23:18.160Z,7.90
2017-11-12T04:25:45.277Z,7.13
2017-11-12T04:28:11.696Z,7.03
2017-11-12T04:30:38.088Z,7.00
2017-11-12T04:33:04.499Z,7.67
2017-11-12T04:35:31.629Z,7.27
2017-11-12T04:37:58.018Z,6.30
2017-11-12T04:40:24.405Z,13.63
2017-11-12T04:42:51.544Z,6.93
2017-11-12T04:45:17.927Z,7.20
2017-11-12T04:47:44.330Z,6.90
2017-11-12T04:50:11.469Z,6.80
2017-11-12T04:52:38.885Z,6.70
2017-11-12T04:55:05.288Z,6.47
2017-11-12T04:57:31.691Z,8.20
2017-11-12T04:59:58.857Z,5.87
2017-11-12T05:02:25.283Z,6.53
2017-11-12T05:04:51.698Z,6.70
2017-11-12T05:07:18.846Z,7.30
2017-11-12T05:09:45.322Z,7.20
2017-11-12T05:12:12.695Z,7.80
2017-11-12T05:14:39.165Z,10.23
2017-11-12T05:17:05.548Z,8.80
2017-11-12T05:19:31.932Z,11.20
2017-11-12T05:21:58.333Z,13.40
2017-11-12T05:24:24.736Z,14.83
2017-11-12T05:26:51.142Z,15.00
2017-11-12T05:29:18.288Z,14.70
2017-11-12T05:31:45.453Z,11.97
2017-11-12T05:34:12.596Z,12.80
2017-11-12T05:36:39.733Z,16.17
2017-11-12T05:39:06.896Z,17.90
2017-11-12T05:41:34.166Z,15.53
2017-11-12T05:44:00.567Z,13.73
2017-11-12T05:46:27.701Z,13.40
2017-11-12T05:48:54.106Z,11.97
2017-11-12T05:51:20.505Z,10.30
2017-11-12T05:53:46.885Z,9.80
2017-11-12T05:56:13.275Z,13.00
2017-11-12T05:58:39.701Z,9.50
2017-11-12T06:01:06.158Z,10.70
2017-11-12T06:03:32.652Z,10.63
2017-11-12T06:05:59.803Z,9.60
2017-11-12T06:08:26.924Z,11.10
2017-11-12T06:10:53.365Z,14.20
2017-11-12T06:13:19.808Z,20.00
2017-11-12T06:15:46.963Z,60.93
2017-11-12T06:18:14.165Z,107.20
2017-11-12T06:20:40.651Z,74.93
2017-11-12T06:23:07.818Z,64.87
2017-11-12T06:25:34.219Z,39.10
2017-11-12T06:28:00.605Z,34.00
2017-11-12T06:30:27.024Z,27.77
2017-11-12T06:32:53.471Z,22.40
2017-11-12T06:35:19.891Z,20.23
2017-11-12T06:37:46.289Z,23.10
2017-11-12T06:40:13.423Z,22.53
2017-11-12T06:42:39.790Z,63.33
2017-11-12T06:45:06.170Z,110.03
2017-11-12T06:47:32.553Z,92.67
2017-11-12T06:49:58.959Z,51.07
2017-11-12T06:52:26.106Z,32.73
2017-11-12T06:54:53.252Z,28.30
2017-11-12T06:57:20.436Z,20.33
2017-11-12T06:59:46.856Z,10.37
2017-11-12T07:02:13.282Z,11.47
2017-11-12T07:04:41.213Z,10.00
2017-11-12T07:07:07.613Z,11.07
2017-11-12T07:09:34.023Z,10.17
2017-11-12T07:12:01.151Z,12.27
2017-11-12T07:14:27.542Z,11.43
2017-11-12T07:16:54.047Z,12.10
2017-11-12T07:19:20.491Z,19.50
2017-11-12T07:21:46.922Z,122.67
2017-11-12T07:24:13.375Z,35.40
2017-11-12T07:26:39.752Z,10.47
2017-11-12T07:29:06.141Z,11.10
2017-11-12T07:31:32.552Z,11.00
2017-11-12T07:33:58.924Z,12.13
2017-11-12T07:36:25.349Z,12.20
2017-11-12T07:38:51.800Z,11.73
2017-11-12T07:41:19.668Z,10.77
2017-11-12T07:43:46.099Z,14.20
2017-11-12T07:46:13.260Z,11.43
2017-11-12T07:48:40.412Z,12.03
2017-11-12T07:51:07.574Z,12.10
2017-11-12T07:53:34.713Z,10.90
2017-11-12T07:56:01.121Z,10.10
2017-11-12T07:58:27.537Z,11.53
2017-11-12T08:00:53.938Z,11.70
2017-11-12T08:03:20.347Z,13.50
2017-11-12T08:05:46.777Z,11.27
2017-11-12T08:08:13.984Z,10.70
2017-11-12T08:10:40.406Z,12.97
2017-11-12T08:13:06.883Z,10.70
2017-11-12T08:15:34.760Z,10.30
2017-11-12T08:18:02.074Z,8.53
2017-11-12T08:20:28.464Z,10.00
2017-11-12T08:22:55.612Z,7.53
2017-11-12T08:25:22.841Z,9.67
2017-11-12T08:27:50.788Z,9.20
2017-11-12T08:30:17.192Z,17.37
2017-11-12T08:32:43.610Z,42.60
2017-11-12T08:35:10.012Z,11.93
2017-11-12T08:37:36.510Z,55.03
2017-11-12T08:40:02.981Z,24.30
2017-11-12T08:42:30.187Z,6.60
2017-11-12T08:44:56.596Z,15.37
2017-11-12T08:47:23.019Z,9.23
2017-11-12T08:49:50.147Z,11.73
2017-11-12T08:52:16.631Z,12.17
2017-11-12T08:54:44.575Z,7.23
2017-11-12T08:57:10.992Z,7.23
2017-11-12T08:59:38.124Z,7.13
2017-11-12T09:02:04.617Z,9.40
2017-11-12T09:04:31.034Z,10.20
2017-11-12T09:06:57.710Z,6.00
2017-11-12T09:09:24.124Z,4.23
2017-11-12T09:11:50.557Z,6.00
2017-11-12T09:14:16.965Z,7.53
2017-11-12T09:16:43.402Z,6.10
2017-11-12T09:19:10.426Z,8.17
2017-11-12T09:21:37.590Z,7.93
2017-11-12T09:24:04.002Z,7.07
2017-11-12T09:26:31.200Z,6.60
2017-11-12T09:28:57.641Z,6.03
2017-11-12T09:31:24.067Z,9.40
2017-11-12T09:33:50.551Z,5.63
2017-11-12T09:36:16.962Z,6.00
2017-11-12T09:38:44.110Z,7.87
2017-11-12T09:41:12.024Z,5.57
2017-11-12T09:43:38.442Z,17.30
2017-11-12T09:46:05.588Z,21.93
2017-11-12T09:48:32.732Z,16.33
2017-11-12T09:50:59.853Z,29.53
2017-11-12T09:53:26.252Z,9.50
2017-11-12T09:55:52.644Z,15.70
2017-11-12T09:58:19.791Z,6.60
2017-11-12T10:00:47.663Z,14.80
2017-11-12T10:03:14.777Z,14.00
2017-11-12T10:05:41.165Z,6.13
2017-11-12T10:08:07.551Z,9.57
2017-11-12T10:10:34.003Z,7.83
2017-11-12T10:13:01.161Z,9.83
2017-11-12T10:15:27.568Z,11.20
2017-11-12T10:17:53.956Z,13.30
2017-11-12T10:20:20.340Z,8.73
2017-11-12T10:22:46.733Z,9.67
2017-11-12T10:25:13.122Z,11.10
2017-11-12T10:27:40.291Z,7.00
2017-11-12T10:30:06.698Z,6.47
2017-11-12T10:32:33.892Z,11.00
2017-11-12T10:35:00.285Z,8.97
2017-11-12T10:37:27.458Z,16.73
2017-11-12T10:39:53.858Z,15.20
2017-11-12T10:42:20.257Z,11.57
2017-11-12T10:44:46.642Z,8.30
2017-11-12T10:47:13.775Z,30.47
2017-11-12T10:49:40.916Z,13.60
2017-11-12T10:52:08.782Z,9.63
2017-11-12T10:54:35.226Z,9.47
2017-11-12T10:57:01.625Z,10.00
2017-11-12T10:59:28.028Z,11.33
2017-11-12T11:01:54.619Z,17.63
2017-11-12T11:04:22.521Z,11.07
2017-11-12T11:06:48.927Z,15.67
2017-11-12T11:09:16.028Z,10.27
2017-11-12T11:11:42.426Z,12.67
2017-11-12T11:14:09.592Z,12.93
2017-11-12T11:16:35.984Z,11.40
2017-11-12T11:19:03.135Z,11.70
2017-11-12T11:21:29.560Z,12.80
2017-11-12T11:23:55.957Z,13.20
2017-11-12T11:26:22.353Z,23.43
2017-11-12T11:28:48.761Z,6.10
2017-11-12T11:31:15.909Z,8.60
2017-11-12T11:33:42.314Z,7.10
2017-11-12T11:36:08.728Z,2.17
2017-11-12T11:38:35.188Z,2.57
2017-11-12T11:41:02.540Z,4.67
2017-11-12T11:43:28.925Z,15.80
2017-11-12T11:45:56.074Z,3.93
2017-11-12T11:48:22.471Z,2.67
2017-11-12T11:50:49.605Z,2.70
2017-11-12T11:53:15.986Z,2.30
2017-11-12T11:55:43.243Z,2.60
2017-11-12T11:58:09.739Z,2.50
2017-11-12T12:00:36.176Z,2.70
2017-11-12T12:03:04.105Z,2.40
2017-11-12T12:05:30.530Z,2.57
2017-11-12T12:07:56.926Z,3.10
2017-11-12T12:10:24.041Z,3.37
2017-11-12T12:12:50.413Z,3.70
2017-11-12T12:15:17.572Z,4.33
2017-11-12T12:17:43.976Z,5.63
2017-11-12T12:20:10.403Z,3.40
2017-11-12T12:22:36.812Z,3.97
2017-11-12T12:25:03.232Z,3.83
2017-11-12T12:27:29.626Z,6.93
2017-11-12T12:29:56.797Z,5.20
2017-11-12T12:32:23.181Z,7.20
2017-11-12T12:34:49.565Z,8.03
2017-11-12T12:37:16.025Z,7.93
2017-11-12T12:39:42.493Z,9.93
2017-11-12T12:42:09.702Z,7.90
2017-11-12T12:44:36.101Z,8.90
2017-11-12T12:47:02.534Z,8.60
2017-11-12T12:49:28.978Z,9.60
2017-11-12T12:51:55.395Z,8.60
2017-11-12T12:54:21.850Z,7.73
2017-11-12T12:56:48.268Z,8.00
2017-11-12T12:59:14.672Z,7.17
2017-11-12T13:01:41.810Z,7.67
2017-11-12T13:04:08.998Z,8.97
2017-11-12T13:06:35.431Z,8.70
2017-11-12T13:09:01.880Z,6.63
2017-11-12T13:11:28.382Z,9.53
2017-11-12T13:13:55.592Z,8.47
2017-11-12T13:16:22.056Z,11.37
2017-11-12T13:18:48.465Z,10.17
2017-11-12T13:21:14.885Z,9.43
2017-11-12T13:23:41.344Z,9.23
2017-11-12T13:26:07.784Z,10.10
2017-11-12T13:28:35.690Z,10.63
2017-11-12T13:31:02.186Z,12.13
2017-11-12T13:33:29.352Z,10.60
2017-11-12T13:35:56.583Z,11.23
2017-11-12T13:38:23.066Z,13.30
2017-11-12T13:40:49.521Z,13.77
2017-11-12T13:43:15.963Z,14.27
2017-11-12T13:45:42.449Z,20.33
2017-11-12T13:48:08.889Z,16.63
2017-11-12T13:50:35.293Z,14.90
2017-11-12T13:53:02.471Z,15.80
2017-11-12T13:55:28.893Z,16.30
2017-11-12T13:57:55.406Z,14.73
2017-11-12T14:00:22.564Z,13.90
2017-11-12T14:02:49.706Z,13.33
2017-11-12T14:05:16.849Z,15.20
2017-11-12T14:07:44.070Z,14.30
2017-11-12T14:10:10.538Z,12.87
2017-11-12T14:12:37.700Z,13.23
2017-11-12T14:15:04.853Z,14.63
2017-11-12T14:17:32.025Z,15.90
2017-11-12T14:19:58.455Z,15.63
2017-11-12T14:22:24.887Z,17.53
2017-11-12T14:24:51.305Z,16.80
2017-11-12T14:27:18.608Z,13.10
2017-11-12T14:29:45.005Z,15.60
2017-11-12T14:32:11.446Z,40.63
2017-11-12T14:34:37.853Z,13.03
2017-11-12T14:37:05.015Z,11.40
2017-11-12T14:39:31.433Z,13.40
2017-11-12T14:41:58.625Z,43.23
2017-11-12T14:44:25.096Z,20.10
2017-11-12T14:49:26.673Z,14.93
2017-11-12T14:51:53.869Z,12.90
2017-11-12T14:54:20.302Z,11.53
2017-11-12T14:56:46.704Z,11.33
2017-11-12T14:59:13.832Z,11.80
2017-11-12T15:01:40.276Z,12.07
2017-11-12T15:04:07.530Z,13.73
2017-11-12T15:06:33.993Z,14.07
2017-11-12T15:09:00.420Z,24.27
2017-11-12T15:11:26.826Z,24.33
2017-11-12T15:13:53.221Z,14.20
2017-11-12T15:16:19.609Z,14.50
2017-11-12T15:18:46.765Z,14.50
2017-11-12T15:21:13.160Z,19.10
2017-11-12T15:23:41.087Z,17.30
2017-11-12T15:26:07.476Z,16.03
2017-11-12T15:28:34.645Z,17.37
2017-11-12T15:31:01.045Z,15.63
2017-11-12T15:33:27.491Z,12.47
2017-11-12T15:35:54.631Z,12.97
2017-11-12T15:38:21.022Z,11.50
2017-11-12T15:40:47.441Z,13.00
2017-11-12T15:43:13.850Z,10.43
2017-11-12T15:45:40.398Z,10.27
2017-11-12T15:48:06.792Z,10.60
2017-11-12T15:50:33.187Z,12.13
2017-11-12T15:52:59.612Z,11.33
2017-11-12T15:55:26.072Z,9.57
2017-11-12T15:57:52.468Z,9.83
2017-11-12T16:00:18.864Z,9.03
2017-11-12T16:02:45.261Z,10.10
2017-11-12T16:05:11.657Z,11.03
2017-11-12T16:07:38.116Z,10.13
2017-11-12T16:10:04.526Z,12.23
2017-11-12T16:12:30.932Z,10.70
2017-11-12T16:14:58.105Z,13.47
2017-11-12T16:17:24.540Z,11.93
2017-11-12T16:19:50.945Z,14.10
2017-11-12T16:22:18.110Z,10.30
2017-11-12T16:24:44.518Z,10.70
2017-11-12T16:27:11.510Z,26.80
2017-11-12T16:29:38.128Z,21.07
2017-11-12T16:32:05.297Z,21.63
2017-11-12T16:34:31.706Z,34.37
2017-11-12T16:36:58.154Z,19.43
2017-11-12T16:39:24.638Z,22.90
2017-11-12T16:41:51.835Z,24.57
2017-11-12T16:44:18.443Z,15.63
2017-11-12T16:46:45.791Z,7.33
2017-11-12T16:49:13.047Z,6.80
2017-11-12T16:51:39.491Z,6.20
2017-11-12T16:54:06.665Z,6.83
2017-11-12T16:56:33.121Z,8.17
2017-11-12T16:58:59.576Z,7.90
2017-11-12T17:01:26.140Z,8.37
2017-11-12T17:03:53.307Z,7.70
2017-11-12T17:06:20.442Z,10.57
2017-11-12T17:08:47.577Z,10.20
2017-11-12T17:11:15.450Z,10.30
2017-11-12T17:13:42.596Z,9.50
2017-11-12T17:16:10.520Z,9.53
2017-11-12T17:18:36.918Z,9.37
2017-11-12T17:21:04.061Z,9.63
2017-11-12T17:23:31.228Z,11.13
2017-11-12T17:25:57.667Z,10.47
2017-11-12T17:28:24.097Z,10.73
2017-11-12T17:30:50.491Z,9.93
2017-11-12T17:33:17.642Z,9.53
2017-11-12T17:35:44.802Z,8.77
2017-11-12T17:38:11.957Z,9.20
2017-11-12T17:40:38.365Z,9.47
2017-11-12T17:43:04.789Z,8.07
2017-11-12T17:45:31.177Z,9.03
2017-11-12T17:47:57.632Z,9.10
2017-11-12T17:50:24.506Z,8.50
2017-11-12T17:52:50.919Z,7.27
2017-11-12T17:55:17.345Z,6.57
2017-11-12T17:57:43.771Z,7.80
2017-11-12T18:00:10.905Z,24.93
2017-11-12T18:02:38.047Z,16.70
2017-11-12T18:05:04.455Z,8.20
2017-11-12T18:07:31.593Z,8.50
2017-11-12T18:09:59.534Z,7.53
2017-11-12T18:12:25.941Z,6.70
2017-11-12T18:14:52.353Z,6.60
2017-11-12T18:17:18.799Z,7.23
2017-11-12T18:19:45.208Z,7.67
2017-11-12T18:22:12.356Z,8.23
2017-11-12T18:24:38.776Z,6.13
2017-11-12T18:27:05.932Z,5.30
2017-11-12T18:29:33.079Z,8.53
2017-11-12T18:32:00.229Z,15.37
2017-11-12T18:34:26.632Z,9.90
2017-11-12T18:36:54.525Z,7.20
2017-11-12T18:39:21.737Z,8.30
2017-11-12T18:41:48.187Z,11.30
2017-11-12T18:44:15.472Z,11.90
2017-11-12T18:46:42.675Z,9.30
2017-11-12T18:49:09.116Z,7.47
2017-11-12T18:51:35.548Z,7.60
2017-11-12T18:54:02.104Z,9.30
2017-11-12T18:56:35.194Z,8.60
2017-11-12T18:59:05.312Z,8.40
2017-11-12T19:01:34.734Z,8.70
2017-11-12T19:04:08.932Z,8.97
2017-11-12T19:06:41.438Z,10.43
2017-11-12T19:09:08.620Z,8.00
2017-11-12T19:11:35.970Z,7.80
2017-11-12T19:14:03.341Z,8.30
2017-11-12T19:16:33.349Z,7.50
2017-11-12T19:19:02.849Z,10.27
2017-11-12T19:21:31.359Z,7.40
2017-11-12T19:24:03.813Z,8.70
2017-11-12T19:29:12.396Z,11.10
2017-11-12T19:31:38.784Z,10.77
2017-11-12T19:34:05.185Z,11.70
2017-11-12T19:36:31.991Z,12.33
2017-11-12T19:38:59.858Z,14.20
2017-11-12T19:41:26.994Z,13.40
2017-11-12T19:43:54.872Z,11.47
2017-11-12T19:46:21.258Z,14.20
2017-11-12T19:48:47.674Z,13.87
2017-11-12T19:51:14.068Z,14.30
2017-11-12T19:53:41.929Z,14.40
2017-11-12T19:56:08.370Z,12.60
2017-11-12T19:58:35.530Z,14.17
2017-11-12T20:01:02.668Z,16.50
2017-11-12T20:03:30.558Z,15.77
2017-11-12T20:05:57.707Z,14.27
2017-11-12T20:08:24.214Z,14.57
2017-11-12T20:10:52.163Z,15.17
2017-11-12T20:13:19.349Z,16.77
2017-11-12T20:15:46.555Z,17.47
2017-11-12T20:18:13.013Z,16.83
2017-11-12T20:20:41.074Z,15.03
2017-11-12T20:23:07.721Z,11.67
2017-11-12T20:25:35.638Z,11.83
2017-11-12T20:28:02.116Z,9.43
2017-11-12T20:30:28.552Z,8.70
2017-11-12T20:32:55.748Z,7.83
2017-11-12T20:35:22.183Z,5.97
2017-11-12T20:37:48.617Z,4.70
2017-11-12T20:40:15.411Z,3.20
2017-11-12T20:42:43.307Z,2.87
2017-11-12T20:45:09.816Z,2.63
2017-11-12T20:47:36.261Z,2.63
2017-11-12T20:50:04.215Z,3.03
2017-11-12T20:52:30.648Z,2.57
2017-11-12T20:54:57.124Z,2.60
2017-11-12T20:57:23.669Z,2.70
2017-11-12T20:59:50.100Z,2.60
2017-11-12T21:02:17.321Z,2.10
2017-11-12T21:04:47.297Z,2.03
2017-11-12T21:07:13.769Z,1.90
2017-11-12T21:09:40.963Z,1.93
2017-11-12T21:12:07.511Z,1.60
2017-11-12T21:14:33.943Z,1.40
2017-11-12T21:17:00.394Z,1.33
2017-11-12T21:19:27.830Z,1.20
2017-11-12T21:21:55.261Z,1.40
2017-11-12T21:24:23.282Z,1.17
2017-11-12T21:26:51.218Z,1.07
2017-11-12T21:29:19.675Z,1.00
2017-11-12T21:31:47.798Z,1.03
2017-11-12T21:34:14.240Z,1.30
2017-11-12T21:36:52.860Z,0.90
2017-11-12T21:39:20.802Z,0.90
2017-11-12T21:41:47.249Z,0.90
2017-11-12T21:44:15.177Z,0.80
2017-11-12T21:46:41.604Z,1.03
2017-11-12T21:49:08.738Z,0.80
2017-11-12T21:51:35.113Z,0.90
2017-11-12T21:54:01.496Z,0.70
2017-11-12T21:56:27.891Z,0.80
2017-11-12T21:58:54.364Z,0.80
2017-11-12T22:01:21.500Z,0.80
2017-11-12T22:03:49.370Z,0.80
2017-11-12T22:06:15.770Z,0.80
2017-11-12T22:08:42.168Z,0.83
2017-11-12T22:11:08.563Z,0.80
2017-11-12T22:13:34.961Z,0.90
2017-11-12T22:16:01.328Z,0.80
2017-11-12T22:18:27.728Z,0.90
2017-11-12T22:20:54.180Z,1.00
2017-11-12T22:23:20.598Z,0.83
2017-11-12T22:25:47.013Z,0.90
2017-11-12T22:28:13.432Z,1.00
2017-11-12T22:30:39.860Z,0.80
2017-11-12T22:33:06.252Z,1.00
2017-11-12T22:35:32.631Z,0.90
2017-11-12T22:37:59.022Z,1.00
2017-11-12T22:40:26.169Z,1.17
2017-11-12T22:42:53.301Z,1.20
2017-11-12T22:45:19.708Z,1.03
2017-11-12T22:47:46.088Z,0.80
2017-11-12T22:50:13.968Z,1.20
2017-11-12T22:52:40.378Z,1.00
2017-11-12T22:55:06.786Z,1.07
2017-11-12T22:57:33.216Z,0.97
2017-11-12T22:59:59.585Z,1.07
2017-11-12T23:02:26.708Z,1.00
2017-11-12T23:04:53.179Z,0.90
2017-11-12T23:07:20.321Z,1.07
2017-11-12T23:09:47.494Z,1.00
2017-11-12T23:12:13.887Z,1.00
2017-11-12T23:14:40.281Z,1.10
2017-11-12T23:17:06.666Z,0.90
2017-11-12T23:19:33.852Z,1.10
2017-11-12T23:22:00.251Z,1.00
2017-11-12T23:24:27.374Z,1.00
2017-11-12T23:26:53.795Z,0.80
2017-11-12T23:29:20.195Z,0.90
2017-11-12T23:31:46.594Z,1.20
2017-11-12T23:34:13.723Z,0.90
2017-11-12T23:36:40.118Z,1.00
2017-11-12T23:39:06.512Z,1.33
2017-11-12T23:41:33.645Z,0.90
2017-11-12T23:44:00.036Z,1.00
2017-11-12T23:46:26.422Z,0.90
2017-11-12T23:48:53.620Z,1.10
2017-11-12T23:51:20.026Z,1.00
2017-11-12T23:53:46.426Z,1.00
2017-11-12T23:56:12.849Z,0.80
2017-11-12T23:58:40.005Z,1.10
